Hootenville, Louisiana
Current Conditions -  °F | °C
As of 5:53 PM on Friday 24 Oct 2014 (Local Time) from KASD Reporting Station
Clear Clear  
Wind Chill: 22°   Ceiling: Unl
Heat Index: 22°   Visibility: 10mi
Dew Point:   Wind: 5mph
Humidity: 41%   Direction: 350°N
Pressure: 30.05"   Gusts: NA
Location:  30.3898°N, 90.0068°W
Report Text: KASD 242253Z AUTO 35004KT 10SM CLR 22/08 A3005 RMK AO2 SLP174 T02220083
Loading
Personal Weather Stations






























Interactive Weather Map
Tropical Storm Tracking
New forecast layout! Learn more

10-Day Weather Forecast

Advertisements
Track Severe Weather on mobile